Sct Breithorn — HBHC — position and weather

sailwx.info

Track history (hours):
 
Tides and Currents Weather Stations Pressure Air Temp Water Temp Dewpoint Dewpoint Depression Visibility Wind Speed Wind Dir Waves Ship Positions

Sct Breithorn

Last reported at 2017-Mar-16 16:12 UTC. Time now 2017-Mar-29 05:21 UTC.
Position N 37°20' E 025°54'.
Warning: this ship's position is 12 days out of date.

Length 165 m; draft 9 m.

Type: Tanker. MMSI: 269848000.

Date/timePositionNaut miles runAvg speedWind from/ knotsBaromVisibWave heightAir tempDewpointWater temp
2017-Mar-16 16:12N 37°20' E 025°54'  
2017-Mar-11 12:12N 46°17' E 030°54'913.2
2017-Mar-11 11:31N 46°26' E 030°55'28 9.0
2017-Mar-11 08:23N 46°35' E 031°34'8 9.6
2017-Mar-11 07:33N 46°36' E 031°45'9 9.5
2017-Mar-11 06:34N 46°41' E 031°56'9 9.0
2017-Mar-11 05:34N 46°50' E 031°56'7 6.7
2017-Mar-11 04:33N 46°57' E 032°00'0 0.0
2017-Mar-11 03:29N 46°56' E 032°00'0 0.0
2017-Mar-11 02:29N 46°56' E 032°00'0 0.0
2017-Mar-11 01:32N 46°56' E 032°00'0 0.0
2017-Mar-11 00:32N 46°57' E 032°00'0 0.0
2017-Mar-10 23:32N 46°57' E 032°00'0 0.0
2017-Mar-10 22:32N 46°57' E 032°00'0 0.0
2017-Mar-10 21:32N 46°57' E 032°00'0 0.0
2017-Mar-10 20:32N 46°57' E 032°00'0 0.4
2017-Mar-10 19:33N 46°57' E 031°60'0 0.0
2017-Mar-10 18:30N 46°57' E 031°60'0 0.0
2017-Mar-10 17:30N 46°57' E 031°60'0 0.0
2017-Mar-10 16:30N 46°57' E 031°60'0 0.0
2017-Mar-10 15:30N 46°57' E 031°60'0 0.0
2017-Mar-10 14:30N 46°57' E 031°60'0 0.0
2017-Mar-10 13:30N 46°57' E 031°60'0 0.0
2017-Mar-10 12:30N 46°57' E 031°60'0 0.0
2017-Mar-10 11:30N 46°57' E 031°60'0 0.0
2017-Mar-10 10:30N 46°57' E 031°60'0 0.0
2017-Mar-10 09:30N 46°57' E 031°60'0 0.0
2017-Mar-10 08:30N 46°57' E 031°60'0 0.0
2017-Mar-10 07:30N 46°57' E 031°60'0 0.0
2017-Mar-10 06:30N 46°57' E 031°60'0 0.0
2017-Mar-10 05:30N 46°57' E 031°60'0 0.0
2017-Mar-10 04:33N 46°57' E 031°60'0 0.0
2017-Mar-10 03:33N 46°57' E 031°60'0 0.0
2017-Mar-10 02:33N 46°57' E 031°60'0 0.0
2017-Mar-10 01:33N 46°57' E 031°60'0 0.0
2017-Mar-10 00:33N 46°57' E 031°60'0 0.0
2017-Mar-09 23:33N 46°57' E 031°60'0 0.0
2017-Mar-09 22:33N 46°57' E 031°60'0 0.0
2017-Mar-09 21:33N 46°57' E 031°60'0 0.0
2017-Mar-09 20:33N 46°57' E 031°60'0 0.0
2017-Mar-09 19:33N 46°57' E 031°60'0 0.0
2017-Mar-09 18:33N 46°57' E 031°60'0 0.0
2017-Mar-09 17:33N 46°57' E 031°60'0 0.0
2017-Mar-09 16:33N 46°57' E 031°60'0 0.0
2017-Mar-09 15:33N 46°57' E 031°60'0 0.0
2017-Mar-09 14:33N 46°57' E 031°60'0 0.0
2017-Mar-09 13:33N 46°57' E 031°60'0 0.0
2017-Mar-09 12:33N 46°57' E 031°60'0 0.0
2017-Mar-09 11:30N 46°57' E 031°60'0 0.0
2017-Mar-09 10:33N 46°57' E 031°60'0 0.0
2017-Mar-09 09:33N 46°57' E 031°60'0 0.0
2017-Mar-09 08:33N 46°57' E 031°60'0 0.0
2017-Mar-09 07:33N 46°57' E 031°60'0 0.0
2017-Mar-09 06:33N 46°57' E 031°60'0 0.0
2017-Mar-09 05:33N 46°57' E 031°60'0 0.0
2017-Mar-09 04:33N 46°57' E 031°60'0 0.0
2017-Mar-09 03:33N 46°57' E 031°60'0 0.0
2017-Mar-09 02:33N 46°57' E 031°60'0 0.0
2017-Mar-09 01:33N 46°57' E 031°60'0 0.0
2017-Mar-09 00:33N 46°57' E 031°60'1 1.0
2017-Mar-08 23:33N 46°56' E 032°01'0 0.0
2017-Mar-08 22:33N 46°56' E 032°01'0 0.0
2017-Mar-08 21:33N 46°56' E 032°01'0 0.1
2017-Mar-08 20:33N 46°56' E 032°01'0 0.0
2017-Mar-08 19:33N 46°56' E 032°01'0 0.0
2017-Mar-08 18:33N 46°56' E 032°01'0 0.0
2017-Mar-08 17:33N 46°56' E 032°01'0 0.0
2017-Mar-08 16:33N 46°56' E 032°01'0 0.0
2017-Mar-08 15:33N 46°56' E 032°01'0 0.0
2017-Mar-08 14:33N 46°56' E 032°01'0 0.0
2017-Mar-08 13:33N 46°56' E 032°01'0 0.0
2017-Mar-08 12:33N 46°56' E 032°01'0 0.0
2017-Mar-08 11:33N 46°56' E 032°01'0 0.0
2017-Mar-08 10:33N 46°56' E 032°01'0 0.0
2017-Mar-08 09:33N 46°56' E 032°01'0 0.0
2017-Mar-08 08:33N 46°56' E 032°01'0 0.0
2017-Mar-08 07:33N 46°56' E 032°01'0 0.0
2017-Mar-08 06:33N 46°56' E 032°01'0 0.0
2017-Mar-08 05:33N 46°56' E 032°01'0 0.0
2017-Mar-08 04:33N 46°56' E 032°01'0 0.0
2017-Mar-08 03:33N 46°56' E 032°01'0 0.1
2017-Mar-08 02:33N 46°56' E 032°01'0 0.0
2017-Mar-08 01:33N 46°56' E 032°01'0 0.0
2017-Mar-08 00:34N 46°56' E 032°01'0 0.0
2017-Mar-07 23:33N 46°56' E 032°01'0 0.1
2017-Mar-07 22:33N 46°56' E 032°01'0 0.1
2017-Mar-07 21:33N 46°56' E 032°01'0 0.0
2017-Mar-07 20:33N 46°56' E 032°01'0 0.0
2017-Mar-07 19:33N 46°56' E 032°01'0 0.0
2017-Mar-07 18:33N 46°56' E 032°01'0 0.0
2017-Mar-07 17:33N 46°56' E 032°01'7 6.7
2017-Mar-07 16:33N 46°50' E 031°56'1111.0
2017-Mar-07 15:33N 46°39' E 031°56'4210.3
2017-Mar-07 11:31N 46°30' E 030°57'  
Track history (hours):
 
Tides and Currents Weather Stations Pressure Air Temp Water Temp Dewpoint Dewpoint Depression Visibility Wind Speed Wind Dir Waves Ship Positions

Sct Breithorn

Last reported at 2017-Mar-16 16:12 UTC. Time now 2017-Mar-29 05:21 UTC.
Position N 37°20' E 025°54'.
Warning: this ship's position is 12 days out of date.

Length 165 m; draft 9 m.

Type: Tanker. MMSI: 269848000.

Date/timePositionNaut miles runAvg speedWind from/ knotsBaromVisibWave heightAir tempDewpointWater temp
2017-Mar-16 16:12N 37°20' E 025°54'  
2017-Mar-11 12:12N 46°17' E 030°54'913.2
2017-Mar-11 11:31N 46°26' E 030°55'28 9.0
2017-Mar-11 08:23N 46°35' E 031°34'8 9.6
2017-Mar-11 07:33N 46°36' E 031°45'9 9.5
2017-Mar-11 06:34N 46°41' E 031°56'9 9.0
2017-Mar-11 05:34N 46°50' E 031°56'7 6.7
2017-Mar-11 04:33N 46°57' E 032°00'0 0.0
2017-Mar-11 03:29N 46°56' E 032°00'0 0.0
2017-Mar-11 02:29N 46°56' E 032°00'0 0.0
2017-Mar-11 01:32N 46°56' E 032°00'0 0.0
2017-Mar-11 00:32N 46°57' E 032°00'0 0.0
2017-Mar-10 23:32N 46°57' E 032°00'0 0.0
2017-Mar-10 22:32N 46°57' E 032°00'0 0.0
2017-Mar-10 21:32N 46°57' E 032°00'0 0.0
2017-Mar-10 20:32N 46°57' E 032°00'0 0.4
2017-Mar-10 19:33N 46°57' E 031°60'0 0.0
2017-Mar-10 18:30N 46°57' E 031°60'0 0.0
2017-Mar-10 17:30N 46°57' E 031°60'0 0.0
2017-Mar-10 16:30N 46°57' E 031°60'0 0.0
2017-Mar-10 15:30N 46°57' E 031°60'0 0.0
2017-Mar-10 14:30N 46°57' E 031°60'0 0.0
2017-Mar-10 13:30N 46°57' E 031°60'0 0.0
2017-Mar-10 12:30N 46°57' E 031°60'0 0.0
2017-Mar-10 11:30N 46°57' E 031°60'0 0.0
2017-Mar-10 10:30N 46°57' E 031°60'0 0.0
2017-Mar-10 09:30N 46°57' E 031°60'0 0.0
2017-Mar-10 08:30N 46°57' E 031°60'0 0.0
2017-Mar-10 07:30N 46°57' E 031°60'0 0.0
2017-Mar-10 06:30N 46°57' E 031°60'0 0.0
2017-Mar-10 05:30N 46°57' E 031°60'0 0.0
2017-Mar-10 04:33N 46°57' E 031°60'0 0.0
2017-Mar-10 03:33N 46°57' E 031°60'0 0.0
2017-Mar-10 02:33N 46°57' E 031°60'0 0.0
2017-Mar-10 01:33N 46°57' E 031°60'0 0.0
2017-Mar-10 00:33N 46°57' E 031°60'0 0.0
2017-Mar-09 23:33N 46°57' E 031°60'0 0.0
2017-Mar-09 22:33N 46°57' E 031°60'0 0.0
2017-Mar-09 21:33N 46°57' E 031°60'0 0.0
2017-Mar-09 20:33N 46°57' E 031°60'0 0.0
2017-Mar-09 19:33N 46°57' E 031°60'0 0.0
2017-Mar-09 18:33N 46°57' E 031°60'0 0.0
2017-Mar-09 17:33N 46°57' E 031°60'0 0.0
2017-Mar-09 16:33N 46°57' E 031°60'0 0.0
2017-Mar-09 15:33N 46°57' E 031°60'0 0.0
2017-Mar-09 14:33N 46°57' E 031°60'0 0.0
2017-Mar-09 13:33N 46°57' E 031°60'0 0.0
2017-Mar-09 12:33N 46°57' E 031°60'0 0.0
2017-Mar-09 11:30N 46°57' E 031°60'0 0.0
2017-Mar-09 10:33N 46°57' E 031°60'0 0.0
2017-Mar-09 09:33N 46°57' E 031°60'0 0.0
2017-Mar-09 08:33N 46°57' E 031°60'0 0.0
2017-Mar-09 07:33N 46°57' E 031°60'0 0.0
2017-Mar-09 06:33N 46°57' E 031°60'0 0.0
2017-Mar-09 05:33N 46°57' E 031°60'0 0.0
2017-Mar-09 04:33N 46°57' E 031°60'0 0.0
2017-Mar-09 03:33N 46°57' E 031°60'0 0.0
2017-Mar-09 02:33N 46°57' E 031°60'0 0.0
2017-Mar-09 01:33N 46°57' E 031°60'0 0.0
2017-Mar-09 00:33N 46°57' E 031°60'1 1.0
2017-Mar-08 23:33N 46°56' E 032°01'0 0.0
2017-Mar-08 22:33N 46°56' E 032°01'0 0.0
2017-Mar-08 21:33N 46°56' E 032°01'0 0.1
2017-Mar-08 20:33N 46°56' E 032°01'0 0.0
2017-Mar-08 19:33N 46°56' E 032°01'0 0.0
2017-Mar-08 18:33N 46°56' E 032°01'0 0.0
2017-Mar-08 17:33N 46°56' E 032°01'0 0.0
2017-Mar-08 16:33N 46°56' E 032°01'0 0.0
2017-Mar-08 15:33N 46°56' E 032°01'0 0.0
2017-Mar-08 14:33N 46°56' E 032°01'0 0.0
2017-Mar-08 13:33N 46°56' E 032°01'0 0.0
2017-Mar-08 12:33N 46°56' E 032°01'0 0.0
2017-Mar-08 11:33N 46°56' E 032°01'0 0.0
2017-Mar-08 10:33N 46°56' E 032°01'0 0.0
2017-Mar-08 09:33N 46°56' E 032°01'0 0.0
2017-Mar-08 08:33N 46°56' E 032°01'0 0.0
2017-Mar-08 07:33N 46°56' E 032°01'0 0.0
2017-Mar-08 06:33N 46°56' E 032°01'0 0.0
2017-Mar-08 05:33N 46°56' E 032°01'0 0.0
2017-Mar-08 04:33N 46°56' E 032°01'0 0.0
2017-Mar-08 03:33N 46°56' E 032°01'0 0.1
2017-Mar-08 02:33N 46°56' E 032°01'0 0.0
2017-Mar-08 01:33N 46°56' E 032°01'0 0.0
2017-Mar-08 00:34N 46°56' E 032°01'0 0.0
2017-Mar-07 23:33N 46°56' E 032°01'0 0.1
2017-Mar-07 22:33N 46°56' E 032°01'0 0.1
2017-Mar-07 21:33N 46°56' E 032°01'0 0.0
2017-Mar-07 20:33N 46°56' E 032°01'0 0.0
2017-Mar-07 19:33N 46°56' E 032°01'0 0.0
2017-Mar-07 18:33N 46°56' E 032°01'0 0.0
2017-Mar-07 17:33N 46°56' E 032°01'7 6.7
2017-Mar-07 16:33N 46°50' E 031°56'1111.0
2017-Mar-07 15:33N 46°39' E 031°56'4210.3
2017-Mar-07 11:31N 46°30' E 030°57'  

Dump ship's entire track history